Terminal Aerodrome Forecast
Issued by NWS

Home | Current Version | Previous Version | Text Only | Print | Product List | Glossary On
Versions: 1 2 3 4 5 6 7 8 9 10 11 12 13 14 15 16
546
FTUS44 KLZK 190521
TAFPBF
TAF
KPBF 190521Z 1906/2006 19002KT P6SM VCTS SCT050CB BKN250
      TEMPO 1906/1908 VRB15G30KT 5SM -TSRA BR BKN025CB
     FM190900 21002KT 5SM BR BKN250
     FM191500 23004KT P6SM SCT050 BKN250=

USA.gov is the U.S. government's official web portal to all federal, state and local government web resources and services.